createdAt,value
2017-07-22T00:01:32.582Z,15.70
2017-07-22T00:04:00.400Z,15.70
2017-07-22T00:06:27.921Z,15.70
2017-07-22T00:08:55.436Z,15.60
2017-07-22T00:11:23.042Z,15.60
2017-07-22T00:13:51.137Z,15.60
2017-07-22T00:16:18.930Z,15.60
2017-07-22T00:18:46.434Z,15.60
2017-07-22T00:21:14.085Z,15.60
2017-07-22T00:23:41.686Z,15.50
2017-07-22T00:26:09.751Z,15.50
2017-07-22T00:28:37.280Z,15.50
2017-07-22T00:31:05.156Z,15.50
2017-07-22T00:33:32.832Z,15.40
2017-07-22T00:36:00.381Z,15.30
2017-07-22T00:38:27.963Z,15.20
2017-07-22T00:40:55.881Z,15.20
2017-07-22T00:43:23.406Z,15.20
2017-07-22T00:45:51.878Z,15.10
2017-07-22T00:48:19.437Z,15.10
2017-07-22T00:50:47.260Z,15.00
2017-07-22T00:53:15.130Z,15.00
2017-07-22T00:55:42.681Z,15.00
2017-07-22T00:58:10.219Z,15.00
2017-07-22T01:00:37.721Z,14.90
2017-07-22T01:03:06.402Z,14.90
2017-07-22T01:05:34.012Z,14.90
2017-07-22T01:08:02.505Z,14.90
2017-07-22T01:10:30.310Z,14.90
2017-07-22T01:12:58.750Z,14.90
2017-07-22T01:15:26.460Z,14.90
2017-07-22T01:17:54.733Z,14.90
2017-07-22T01:20:23.059Z,14.90
2017-07-22T01:22:51.051Z,14.90
2017-07-22T01:25:18.577Z,14.90
2017-07-22T01:27:46.120Z,14.90
2017-07-22T01:30:13.660Z,14.90
2017-07-22T01:32:42.196Z,14.90
2017-07-22T01:35:09.897Z,14.80
2017-07-22T01:37:38.181Z,14.90
2017-07-22T01:40:06.501Z,14.80
2017-07-22T01:42:34.256Z,14.90
2017-07-22T01:45:01.964Z,15.00
2017-07-22T01:47:30.296Z,15.00
2017-07-22T01:49:57.866Z,15.00
2017-07-22T01:52:25.717Z,15.00
2017-07-22T01:54:53.424Z,15.00
2017-07-22T01:57:21.762Z,14.90
2017-07-22T01:59:50.107Z,14.90
2017-07-22T02:02:17.616Z,14.90
2017-07-22T02:04:45.193Z,14.90
2017-07-22T02:07:15.369Z,14.90
2017-07-22T02:09:43.752Z,14.90
2017-07-22T02:12:11.454Z,15.00
2017-07-22T02:14:39.797Z,15.50
2017-07-22T02:17:07.333Z,15.50
2017-07-22T02:19:34.853Z,15.70
2017-07-22T02:22:02.702Z,16.00
2017-07-22T02:24:30.997Z,16.50
2017-07-22T02:26:58.505Z,16.50
2017-07-22T02:29:26.376Z,16.70
2017-07-22T02:31:54.279Z,16.80
2017-07-22T02:34:21.785Z,16.80
2017-07-22T02:36:49.525Z,17.00
2017-07-22T02:39:17.371Z,17.00
2017-07-22T02:41:44.905Z,17.00
2017-07-22T02:44:13.249Z,17.10
2017-07-22T02:46:40.829Z,17.10
2017-07-22T02:49:09.283Z,17.50
2017-07-22T02:51:36.801Z,17.50
2017-07-22T02:54:05.306Z,17.50
2017-07-22T02:56:32.846Z,17.50
2017-07-22T02:59:00.368Z,17.50
2017-07-22T03:01:28.688Z,17.60
2017-07-22T03:03:56.224Z,17.60
2017-07-22T03:06:24.865Z,17.70
2017-07-22T03:08:52.389Z,17.70
2017-07-22T03:11:19.949Z,17.80
2017-07-22T03:13:47.553Z,17.90
2017-07-22T03:16:15.052Z,18.00
2017-07-22T03:18:42.622Z,18.10
2017-07-22T03:21:10.384Z,18.20
2017-07-22T03:23:38.237Z,18.40
2017-07-22T03:26:06.581Z,18.60
2017-07-22T03:28:34.177Z,18.70
2017-07-22T03:31:02.155Z,18.80
2017-07-22T03:33:31.150Z,18.90
2017-07-22T03:35:58.644Z,19.00
2017-07-22T03:38:29.014Z,19.10
2017-07-22T03:40:56.510Z,19.00
2017-07-22T03:43:24.794Z,19.10
2017-07-22T03:45:52.431Z,19.10
2017-07-22T03:48:20.357Z,19.20
2017-07-22T03:50:48.868Z,19.20
2017-07-22T03:53:16.364Z,19.30
2017-07-22T03:55:43.883Z,19.40
2017-07-22T03:58:11.377Z,19.50
2017-07-22T04:00:39.115Z,19.50
2017-07-22T04:03:07.718Z,19.60
2017-07-22T04:05:35.237Z,19.60
2017-07-22T04:08:02.737Z,19.60
2017-07-22T04:10:30.261Z,19.60
2017-07-22T04:12:57.757Z,19.50
2017-07-22T04:15:25.355Z,19.50
2017-07-22T04:17:52.905Z,19.60
2017-07-22T04:20:20.397Z,19.60
2017-07-22T04:22:48.682Z,19.60
2017-07-22T04:25:17.303Z,19.70
2017-07-22T04:27:44.921Z,19.70
2017-07-22T04:30:12.766Z,19.70
2017-07-22T04:32:40.817Z,19.70
2017-07-22T04:35:08.312Z,19.70
2017-07-22T04:37:36.661Z,19.70
2017-07-22T04:40:04.329Z,19.70
2017-07-22T04:42:31.874Z,19.70
2017-07-22T04:44:59.889Z,19.70
2017-07-22T04:47:27.429Z,19.60
2017-07-22T04:49:55.720Z,19.60
2017-07-22T04:52:23.209Z,19.60
2017-07-22T04:54:50.735Z,19.60
2017-07-22T04:57:18.265Z,19.70
2017-07-22T04:59:46.601Z,19.80
2017-07-22T05:02:14.361Z,19.80
2017-07-22T05:04:41.926Z,19.90
2017-07-22T05:07:09.554Z,19.90
2017-07-22T05:09:37.332Z,19.90
2017-07-22T05:12:04.924Z,20.00
2017-07-22T05:14:32.489Z,20.20
2017-07-22T05:17:00.326Z,20.40
2017-07-22T05:19:28.077Z,20.80
2017-07-22T05:21:55.573Z,21.20
2017-07-22T05:24:23.912Z,23.10
2017-07-22T05:26:51.429Z,23.00
2017-07-22T05:29:18.988Z,23.20
2017-07-22T05:31:47.193Z,22.70
2017-07-22T05:34:14.790Z,22.60
2017-07-22T05:36:43.194Z,22.00
2017-07-22T05:39:11.004Z,22.00
2017-07-22T05:41:38.550Z,21.60
2017-07-22T05:44:06.052Z,21.60
2017-07-22T05:46:34.580Z,21.30
2017-07-22T05:49:02.090Z,21.30
2017-07-22T05:51:29.625Z,21.30
2017-07-22T05:53:57.192Z,21.40
2017-07-22T05:56:25.024Z,21.60
2017-07-22T05:58:52.571Z,21.60
2017-07-22T06:01:20.117Z,21.50
2017-07-22T06:03:47.656Z,21.30
2017-07-22T06:06:15.164Z,21.10
2017-07-22T06:08:43.257Z,21.10
2017-07-22T06:11:11.656Z,21.30
2017-07-22T06:13:39.460Z,21.30
2017-07-22T06:16:06.957Z,21.70
2017-07-22T06:18:34.810Z,21.70
2017-07-22T06:21:02.361Z,22.50
2017-07-22T06:23:30.065Z,23.30
2017-07-22T06:25:57.565Z,23.20
2017-07-22T06:28:25.512Z,23.40
2017-07-22T06:30:53.022Z,23.00
2017-07-22T06:33:20.560Z,23.30
2017-07-22T06:35:48.309Z,23.70
2017-07-22T06:38:16.055Z,23.80
2017-07-22T06:40:43.580Z,23.90
2017-07-22T06:43:11.076Z,24.50
2017-07-22T06:45:38.638Z,25.40
2017-07-22T06:48:06.376Z,25.90
2017-07-22T06:50:34.177Z,26.90
2017-07-22T06:53:01.725Z,27.30
2017-07-22T06:55:30.182Z,27.60
2017-07-22T06:57:57.980Z,28.10
2017-07-22T07:00:26.369Z,27.50
2017-07-22T07:02:54.711Z,27.00
2017-07-22T07:05:22.277Z,26.90
2017-07-22T07:07:49.887Z,27.80
2017-07-22T07:10:17.428Z,28.70
2017-07-22T07:12:45.841Z,28.00
2017-07-22T07:15:13.613Z,27.20
2017-07-22T07:17:41.455Z,27.30
2017-07-22T07:20:09.021Z,26.90
2017-07-22T07:22:36.560Z,27.20
2017-07-22T07:25:04.142Z,27.70
2017-07-22T07:27:31.656Z,28.30
2017-07-22T07:30:00.984Z,28.50
2017-07-22T07:32:28.510Z,28.40
2017-07-22T07:34:56.773Z,27.80
2017-07-22T07:37:24.321Z,27.70
2017-07-22T07:39:52.114Z,27.40
2017-07-22T07:42:19.918Z,27.50
2017-07-22T07:44:47.440Z,27.20
2017-07-22T07:47:15.238Z,27.90
2017-07-22T07:49:42.822Z,28.30
2017-07-22T07:52:10.342Z,27.60
2017-07-22T07:54:38.106Z,27.60
2017-07-22T07:57:05.617Z,26.90
2017-07-22T07:59:33.989Z,28.30
2017-07-22T08:02:01.553Z,28.30
2017-07-22T08:04:29.973Z,27.80
2017-07-22T08:06:57.489Z,27.80
2017-07-22T08:09:25.814Z,27.20
2017-07-22T08:11:53.437Z,27.30
2017-07-22T08:14:20.966Z,27.80
2017-07-22T08:16:49.033Z,28.90
2017-07-22T08:19:16.878Z,28.90
2017-07-22T08:21:45.726Z,29.40
2017-07-22T08:24:13.286Z,29.10
2017-07-22T08:26:40.800Z,29.00
2017-07-22T08:29:08.307Z,29.00
2017-07-22T08:31:35.840Z,30.10
2017-07-22T08:34:04.369Z,30.60
2017-07-22T08:36:32.217Z,30.50
2017-07-22T08:38:59.722Z,31.20
2017-07-22T08:41:28.009Z,30.50
2017-07-22T08:43:56.369Z,30.10
2017-07-22T08:46:24.686Z,29.50
2017-07-22T08:48:52.202Z,29.50
2017-07-22T08:51:20.567Z,28.50
2017-07-22T08:53:48.470Z,28.50
2017-07-22T08:56:16.048Z,28.70
2017-07-22T08:58:44.753Z,28.20
2017-07-22T09:01:12.981Z,27.30
2017-07-22T09:03:40.540Z,26.30
2017-07-22T09:06:08.860Z,26.20
2017-07-22T09:08:36.383Z,26.30
2017-07-22T09:11:03.924Z,25.70
2017-07-22T09:13:32.573Z,26.00
2017-07-22T09:16:00.316Z,25.90
2017-07-22T09:18:27.852Z,25.60
2017-07-22T09:20:55.377Z,25.40
2017-07-22T09:23:23.181Z,25.40
2017-07-22T09:25:50.679Z,25.80
2017-07-22T09:28:18.256Z,26.80
2017-07-22T09:30:46.060Z,27.20
2017-07-22T09:33:13.557Z,27.50
2017-07-22T09:35:41.897Z,26.80
2017-07-22T09:38:09.441Z,26.80
2017-07-22T09:40:36.961Z,26.10
2017-07-22T09:43:05.238Z,26.30
2017-07-22T09:45:32.761Z,26.30
2017-07-22T09:48:00.809Z,26.60
2017-07-22T09:50:28.393Z,26.90
2017-07-22T09:52:55.908Z,26.70
2017-07-22T09:55:23.441Z,26.80
2017-07-22T09:57:51.236Z,26.90
2017-07-22T10:00:18.733Z,27.30
2017-07-22T10:02:47.017Z,26.90
2017-07-22T10:05:15.308Z,27.50
2017-07-22T10:07:42.880Z,27.50
2017-07-22T10:10:10.417Z,27.60
2017-07-22T10:12:39.240Z,27.30
2017-07-22T10:15:06.737Z,27.30
2017-07-22T10:17:34.597Z,27.00
2017-07-22T10:20:02.144Z,26.90
2017-07-22T10:22:29.686Z,26.80
2017-07-22T10:24:57.210Z,26.60
2017-07-22T10:27:24.755Z,26.60
2017-07-22T10:29:52.273Z,26.50
2017-07-22T10:32:19.781Z,26.50
2017-07-22T10:34:47.741Z,26.40
2017-07-22T10:37:15.596Z,26.30
2017-07-22T10:39:43.121Z,26.50
2017-07-22T10:42:10.695Z,26.40
2017-07-22T10:44:39.005Z,27.40
2017-07-22T10:47:06.612Z,27.40
2017-07-22T10:49:34.203Z,27.70
2017-07-22T10:52:02.002Z,27.70
2017-07-22T10:54:30.460Z,27.40
2017-07-22T10:56:58.001Z,27.10
2017-07-22T10:59:25.497Z,27.20
2017-07-22T11:01:54.909Z,27.00
2017-07-22T11:04:22.660Z,26.90
2017-07-22T11:06:50.196Z,26.90
2017-07-22T11:09:17.744Z,27.00
2017-07-22T11:11:45.284Z,27.10
2017-07-22T11:14:13.804Z,27.50
2017-07-22T11:16:41.388Z,27.50
2017-07-22T11:19:08.958Z,27.70
2017-07-22T11:21:36.657Z,27.50
2017-07-22T11:24:04.358Z,27.50
2017-07-22T11:26:31.893Z,27.30
2017-07-22T11:29:00.360Z,27.30
2017-07-22T11:31:27.868Z,26.90
2017-07-22T11:33:55.800Z,26.90
2017-07-22T11:36:23.706Z,27.00
2017-07-22T11:38:51.233Z,27.10
2017-07-22T11:41:18.780Z,27.10
2017-07-22T11:43:46.295Z,27.40
2017-07-22T11:46:15.129Z,26.60
2017-07-22T11:48:43.081Z,26.60
2017-07-22T11:51:11.631Z,26.10
2017-07-22T11:53:39.128Z,25.50
2017-07-22T11:56:06.889Z,25.00
2017-07-22T11:58:34.663Z,24.50
2017-07-22T12:01:02.598Z,23.90
2017-07-22T12:03:30.379Z,23.10
2017-07-22T12:05:57.934Z,21.80
2017-07-22T12:08:25.672Z,20.90
2017-07-22T12:10:53.256Z,20.60
2017-07-22T12:13:20.852Z,20.40
2017-07-22T12:15:48.404Z,20.40
2017-07-22T12:18:15.943Z,20.50
2017-07-22T12:20:43.530Z,20.60
2017-07-22T12:23:11.850Z,20.70
2017-07-22T12:25:39.392Z,20.60
2017-07-22T12:28:06.923Z,20.80
2017-07-22T12:30:36.404Z,21.50
2017-07-22T12:33:04.284Z,21.50
2017-07-22T12:35:31.828Z,21.60
2017-07-22T12:37:59.386Z,21.90
2017-07-22T12:40:27.124Z,22.10
2017-07-22T12:42:54.648Z,22.50
2017-07-22T12:45:22.142Z,22.60
2017-07-22T12:47:49.661Z,23.00
2017-07-22T12:50:17.556Z,23.30
2017-07-22T12:52:45.135Z,23.70
2017-07-22T12:55:12.719Z,24.00
2017-07-22T12:57:44.781Z,24.00
2017-07-22T13:00:12.514Z,24.00
2017-07-22T13:02:40.036Z,24.00
2017-07-22T13:05:07.836Z,23.70
2017-07-22T13:07:35.357Z,23.40
2017-07-22T13:10:02.954Z,23.30
2017-07-22T13:12:30.690Z,23.30
2017-07-22T13:14:58.251Z,23.50
2017-07-22T13:17:25.756Z,23.90
2017-07-22T13:19:53.564Z,24.50
2017-07-22T13:22:21.092Z,24.60
2017-07-22T13:24:48.720Z,24.30
2017-07-22T13:27:17.030Z,24.10
2017-07-22T13:29:44.591Z,24.10
2017-07-22T13:32:12.117Z,24.40
2017-07-22T13:34:39.932Z,24.70
2017-07-22T13:37:07.746Z,25.30
2017-07-22T13:39:35.252Z,25.40
2017-07-22T13:42:02.833Z,25.80
2017-07-22T13:44:30.672Z,26.10
2017-07-22T13:46:58.230Z,26.00
2017-07-22T13:49:25.796Z,25.20
2017-07-22T13:51:53.329Z,25.10
2017-07-22T13:54:21.144Z,25.20
2017-07-22T13:56:48.772Z,25.30
2017-07-22T13:59:16.643Z,25.40
2017-07-22T14:01:45.137Z,24.70
2017-07-22T14:04:12.663Z,24.60
2017-07-22T14:06:40.211Z,24.70
2017-07-22T14:09:07.966Z,24.70
2017-07-22T14:11:35.529Z,24.60
2017-07-22T14:14:03.074Z,24.40
2017-07-22T14:16:30.619Z,24.00
2017-07-22T14:18:58.157Z,23.80
2017-07-22T14:21:27.110Z,23.70
2017-07-22T14:23:54.644Z,23.70
2017-07-22T14:26:22.942Z,23.80
2017-07-22T14:28:51.626Z,23.60
2017-07-22T14:31:19.249Z,23.90
2017-07-22T14:33:47.868Z,24.30
2017-07-22T14:36:15.625Z,24.70
2017-07-22T14:38:43.573Z,25.00
2017-07-22T14:41:11.129Z,24.50
2017-07-22T14:43:39.145Z,24.40
2017-07-22T14:46:06.708Z,24.30
2017-07-22T14:48:34.861Z,23.70
2017-07-22T14:51:02.923Z,23.70
2017-07-22T14:53:30.523Z,23.60
2017-07-22T14:55:59.956Z,23.70
2017-07-22T14:58:27.458Z,23.60
2017-07-22T15:00:55.115Z,23.90
2017-07-22T15:03:22.869Z,24.10
2017-07-22T15:05:51.344Z,24.40
2017-07-22T15:08:19.241Z,24.70
2017-07-22T15:10:47.624Z,24.80
2017-07-22T15:13:15.902Z,25.20
2017-07-22T15:15:43.413Z,25.20
2017-07-22T15:18:11.313Z,25.60
2017-07-22T15:20:38.841Z,25.90
2017-07-22T15:23:06.461Z,25.80
2017-07-22T15:25:34.813Z,25.50
2017-07-22T15:28:04.752Z,25.80
2017-07-22T15:30:32.265Z,25.80
2017-07-22T15:33:00.885Z,25.90
2017-07-22T15:35:28.459Z,26.00
2017-07-22T15:37:55.984Z,26.20
2017-07-22T15:40:24.474Z,25.90
2017-07-22T15:42:52.014Z,25.90
2017-07-22T15:45:19.653Z,26.00
2017-07-22T15:47:47.584Z,26.10
2017-07-22T15:50:16.473Z,25.90
2017-07-22T15:52:44.242Z,25.50
2017-07-22T15:55:11.897Z,25.20
2017-07-22T15:57:39.888Z,25.20
2017-07-22T16:00:07.407Z,25.30
2017-07-22T16:02:37.661Z,25.50
2017-07-22T16:05:05.318Z,25.90
2017-07-22T16:07:33.077Z,26.10
2017-07-22T16:10:02.106Z,26.30
2017-07-22T16:12:31.863Z,26.30
2017-07-22T16:14:59.501Z,26.30
2017-07-22T16:17:27.013Z,26.30
2017-07-22T16:19:54.517Z,26.20
2017-07-22T16:22:24.814Z,26.20
2017-07-22T16:24:53.036Z,26.20
2017-07-22T16:27:21.468Z,25.90
2017-07-22T16:29:49.978Z,25.60
2017-07-22T16:32:20.142Z,25.30
2017-07-22T16:34:48.433Z,25.10
2017-07-22T16:37:18.008Z,25.00
2017-07-22T16:39:49.283Z,24.90
2017-07-22T16:42:20.408Z,25.00
2017-07-22T16:44:50.209Z,25.40
2017-07-22T16:47:19.959Z,25.40
2017-07-22T16:49:49.352Z,25.50
2017-07-22T16:52:18.686Z,25.70
2017-07-22T16:54:48.147Z,25.50
2017-07-22T16:57:17.332Z,25.50
2017-07-22T16:59:46.226Z,25.40
2017-07-22T17:02:15.064Z,25.20
2017-07-22T17:04:42.593Z,25.20
2017-07-22T17:07:10.305Z,25.10
2017-07-22T17:09:37.881Z,25.00
2017-07-22T17:12:06.150Z,24.70
2017-07-22T17:14:35.808Z,24.60
2017-07-22T17:17:03.366Z,24.50
2017-07-22T17:19:31.093Z,24.60
2017-07-22T17:21:59.476Z,24.70
2017-07-22T17:24:26.988Z,24.70
2017-07-22T17:26:54.572Z,24.70
2017-07-22T17:29:22.841Z,24.70
2017-07-22T17:31:52.086Z,24.60
2017-07-22T17:34:19.784Z,24.60
2017-07-22T17:36:47.641Z,24.50
2017-07-22T17:39:15.145Z,24.50
2017-07-22T17:41:42.697Z,24.60
2017-07-22T17:44:10.242Z,24.60
2017-07-22T17:46:38.615Z,24.50
2017-07-22T17:49:06.936Z,24.50
2017-07-22T17:51:34.485Z,24.50
2017-07-22T17:54:02.045Z,24.40
2017-07-22T17:56:29.573Z,24.30
2017-07-22T17:58:58.099Z,24.20
2017-07-22T18:01:25.858Z,24.10
2017-07-22T18:03:53.405Z,23.90
2017-07-22T18:06:20.903Z,23.80
2017-07-22T18:08:48.421Z,23.70
2017-07-22T18:11:15.920Z,23.60
2017-07-22T18:13:43.534Z,23.50
2017-07-22T18:16:11.316Z,23.40
2017-07-22T18:18:39.040Z,23.30
2017-07-22T18:21:06.537Z,23.10
2017-07-22T18:23:34.387Z,22.90
2017-07-22T18:26:02.046Z,22.70
2017-07-22T18:28:29.573Z,22.60
2017-07-22T18:30:57.085Z,22.40
2017-07-22T18:33:25.020Z,22.20
2017-07-22T18:35:52.545Z,22.00
2017-07-22T18:38:20.113Z,21.80
2017-07-22T18:40:47.890Z,21.60
2017-07-22T18:43:15.456Z,21.50
2017-07-22T18:45:43.016Z,21.30
2017-07-22T18:48:10.504Z,21.20
2017-07-22T18:50:38.023Z,21.10
2017-07-22T18:53:05.528Z,21.00
2017-07-22T18:55:33.832Z,20.60
2017-07-22T18:58:01.365Z,20.60
2017-07-22T19:00:29.629Z,20.30
2017-07-22T19:02:57.214Z,20.30
2017-07-22T19:05:25.053Z,20.20
2017-07-22T19:07:53.341Z,20.20
2017-07-22T19:10:21.613Z,20.10
2017-07-22T19:12:49.893Z,20.10
2017-07-22T19:15:18.199Z,20.10
2017-07-22T19:17:45.777Z,20.00
2017-07-22T19:20:13.276Z,20.00
2017-07-22T19:22:41.588Z,19.80
2017-07-22T19:25:09.114Z,19.80
2017-07-22T19:27:37.400Z,19.80
2017-07-22T19:30:04.959Z,19.80
2017-07-22T19:32:32.480Z,19.80
2017-07-22T19:34:59.996Z,19.80
2017-07-22T19:37:27.498Z,19.70
2017-07-22T19:39:55.014Z,19.60
2017-07-22T19:42:22.877Z,19.40
2017-07-22T19:44:50.741Z,19.30
2017-07-22T19:47:20.337Z,19.20
2017-07-22T19:49:48.413Z,19.20
2017-07-22T19:52:22.343Z,19.10
2017-07-22T19:54:50.493Z,19.10
2017-07-22T19:57:18.030Z,19.00
2017-07-22T19:59:45.709Z,19.00
2017-07-22T20:02:13.354Z,18.90
2017-07-22T20:04:41.450Z,18.90
2017-07-22T20:07:08.965Z,18.80
2017-07-22T20:09:36.833Z,18.70
2017-07-22T20:12:07.524Z,18.60
2017-07-22T20:14:36.360Z,18.50
2017-07-22T20:17:04.245Z,18.50
2017-07-22T20:19:32.008Z,18.50
2017-07-22T20:21:59.869Z,18.40
2017-07-22T20:24:27.732Z,18.30
2017-07-22T20:26:55.388Z,18.30
2017-07-22T20:29:22.981Z,18.30
2017-07-22T20:31:50.481Z,18.40
2017-07-22T20:34:18.024Z,18.30
2017-07-22T20:36:46.545Z,18.10
2017-07-22T20:39:15.294Z,18.10
2017-07-22T20:41:43.689Z,18.00
2017-07-22T20:44:11.573Z,18.10
2017-07-22T20:46:39.106Z,18.20
2017-07-22T20:49:06.677Z,18.10
2017-07-22T20:51:34.177Z,18.20
2017-07-22T20:54:01.733Z,18.10
2017-07-22T20:56:30.194Z,18.00
2017-07-22T20:58:57.765Z,17.90
2017-07-22T21:01:25.373Z,17.80
2017-07-22T21:03:53.187Z,17.70
2017-07-22T21:06:20.833Z,17.50
2017-07-22T21:08:48.328Z,17.40
2017-07-22T21:11:16.789Z,17.20
2017-07-22T21:13:44.480Z,17.20
2017-07-22T21:16:12.094Z,17.10
2017-07-22T21:18:39.761Z,17.10
2017-07-22T21:21:07.370Z,17.10
2017-07-22T21:23:34.992Z,17.10
2017-07-22T21:26:02.809Z,17.10
2017-07-22T21:28:30.358Z,17.00
2017-07-22T21:30:58.066Z,17.00
2017-07-22T21:33:25.610Z,17.00
2017-07-22T21:35:53.109Z,17.00
2017-07-22T21:38:20.688Z,17.00
2017-07-22T21:40:48.197Z,17.00
2017-07-22T21:43:15.826Z,17.10
2017-07-22T21:45:43.337Z,17.10
2017-07-22T21:48:11.018Z,17.10
2017-07-22T21:50:38.808Z,17.00
2017-07-22T21:53:06.354Z,17.00
2017-07-22T21:55:34.124Z,16.90
2017-07-22T21:58:01.676Z,17.00
2017-07-22T22:00:29.362Z,16.90
2017-07-22T22:02:57.001Z,16.90
2017-07-22T22:05:24.584Z,16.80
2017-07-22T22:07:52.254Z,16.70
2017-07-22T22:10:20.814Z,16.50
2017-07-22T22:12:48.496Z,16.60
2017-07-22T22:15:17.008Z,16.50
2017-07-22T22:17:44.617Z,16.50
2017-07-22T22:20:13.054Z,16.40
2017-07-22T22:22:40.909Z,16.40
2017-07-22T22:25:08.798Z,16.40
2017-07-22T22:27:36.522Z,16.40
2017-07-22T22:30:04.249Z,16.40
2017-07-22T22:32:31.774Z,16.40
2017-07-22T22:35:00.376Z,16.40
2017-07-22T22:37:28.453Z,16.50
2017-07-22T22:39:55.971Z,16.50
2017-07-22T22:42:23.504Z,16.50
2017-07-22T22:44:51.300Z,16.50
2017-07-22T22:47:19.702Z,16.40
2017-07-22T22:49:47.855Z,16.40
2017-07-22T22:52:16.636Z,16.40
2017-07-22T22:54:44.473Z,16.40
2017-07-22T22:57:12.020Z,16.30
2017-07-22T22:59:39.628Z,16.40
2017-07-22T23:02:07.380Z,16.30
2017-07-22T23:04:35.161Z,16.30
2017-07-22T23:07:02.662Z,16.30
2017-07-22T23:09:30.562Z,16.20
2017-07-22T23:11:58.199Z,16.10
2017-07-22T23:14:26.506Z,16.00
2017-07-22T23:16:54.908Z,15.90
2017-07-22T23:19:22.409Z,15.80
2017-07-22T23:21:50.005Z,15.70
2017-07-22T23:24:17.748Z,15.60
2017-07-22T23:26:45.561Z,15.50
2017-07-22T23:29:13.073Z,15.50
2017-07-22T23:31:40.617Z,15.50
2017-07-22T23:34:08.117Z,15.50
2017-07-22T23:36:35.944Z,15.50
2017-07-22T23:39:03.523Z,15.50
2017-07-22T23:41:31.045Z,15.40
2017-07-22T23:43:58.829Z,15.40
2017-07-22T23:46:26.341Z,15.40
2017-07-22T23:48:54.380Z,15.40
2017-07-22T23:51:22.248Z,15.40
2017-07-22T23:53:50.076Z,15.50
2017-07-22T23:56:18.398Z,15.50
2017-07-22T23:58:45.920Z,15.50
